In Rescue
 
Open Full Screen Window  High Contrast Mode
Wind Gusting 00 knots
05
August 09, 2020 7:16 PM EDT
Weather Information
Wind Direction
  200 °
Wind Speed
  05 kt (6 mph)
Wind Gust
  00 kt (0 mph)
Altimeter
30.01 in
Visibility
10 SM
Temperature
27° C
81° F
Dewpoint
23° C
73° F
Humidity
79%
1hr Rain Fall
00.00 in.
24hr Rain Fall
00.00 in.
Sky Condition
Broken @ 5,000 ft
VFR

METAR KONZ 092316Z AUTO 20005KT 10SM BKN050 27/23 A3001 RMK AO2 T02700233

FAA Disclaimer: The data displayed is for advisory purposes only and is not to be used for flight planning or operations.